createdAt,value
2017-08-30T00:00:26.193Z,23.44
2017-08-30T00:01:40.150Z,23.45
2017-08-30T00:02:53.709Z,23.45
2017-08-30T00:04:08.235Z,23.44
2017-08-30T00:05:22.394Z,23.41
2017-08-30T00:06:35.974Z,23.39
2017-08-30T00:07:49.986Z,23.35
2017-08-30T00:09:03.502Z,23.31
2017-08-30T00:10:42.671Z,23.27
2017-08-30T00:11:56.293Z,23.2
2017-08-30T00:13:09.867Z,23.16
2017-08-30T00:14:23.409Z,23.12
2017-08-30T00:15:37.289Z,23.1
2017-08-30T00:16:51.522Z,23.06
2017-08-30T00:18:05.095Z,23.04
2017-08-30T00:19:18.720Z,23.02
2017-08-30T00:20:32.712Z,23.03
2017-08-30T00:21:46.541Z,23.01
2017-08-30T00:23:00.442Z,22.98
2017-08-30T00:24:14.014Z,22.95
2017-08-30T00:25:27.572Z,22.94
2017-08-30T00:26:41.418Z,22.92
2017-08-30T00:27:54.917Z,22.92
2017-08-30T00:29:08.740Z,22.91
2017-08-30T00:30:22.302Z,22.89
2017-08-30T00:31:35.846Z,22.89
2017-08-30T00:32:49.825Z,22.89
2017-08-30T00:34:03.371Z,22.87
2017-08-30T00:35:17.151Z,22.83
2017-08-30T00:36:30.692Z,22.81
2017-08-30T00:37:44.195Z,22.8
2017-08-30T00:38:58.525Z,22.8
2017-08-30T00:40:12.094Z,22.8
2017-08-30T00:41:25.890Z,22.81
2017-08-30T00:42:39.755Z,22.8
2017-08-30T00:43:53.243Z,22.81
2017-08-30T00:45:06.742Z,22.82
2017-08-30T00:46:20.304Z,22.82
2017-08-30T00:47:34.820Z,22.83
2017-08-30T00:48:48.860Z,22.82
2017-08-30T00:50:02.374Z,22.83
2017-08-30T00:51:16.708Z,22.82
2017-08-30T00:52:30.329Z,22.82
2017-08-30T00:53:44.156Z,22.82
2017-08-30T00:54:57.683Z,22.83
2017-08-30T00:56:11.945Z,22.84
2017-08-30T00:57:25.790Z,22.84
2017-08-30T00:58:39.309Z,22.88
2017-08-30T00:59:53.442Z,22.91
2017-08-30T01:01:07.393Z,22.91
2017-08-30T01:02:21.001Z,22.92
2017-08-30T01:03:34.508Z,22.9
2017-08-30T01:04:48.024Z,22.87
2017-08-30T01:06:01.833Z,22.86
2017-08-30T01:07:15.723Z,22.85
2017-08-30T01:08:29.233Z,22.85
2017-08-30T01:09:42.787Z,22.84
2017-08-30T01:10:56.322Z,22.85
2017-08-30T01:12:10.686Z,22.83
2017-08-30T01:13:24.256Z,22.82
2017-08-30T01:14:37.984Z,22.82
2017-08-30T01:15:51.868Z,22.82
2017-08-30T01:17:05.365Z,22.81
2017-08-30T01:18:19.541Z,22.8
2017-08-30T01:19:33.053Z,22.79
2017-08-30T01:20:46.554Z,22.77
2017-08-30T01:22:00.051Z,22.75
2017-08-30T01:23:13.628Z,22.72
2017-08-30T01:24:27.606Z,22.71
2017-08-30T01:25:41.771Z,22.68
2017-08-30T01:26:55.310Z,22.64
2017-08-30T01:28:08.795Z,22.62
2017-08-30T01:29:22.319Z,22.59
2017-08-30T01:30:37.447Z,22.56
2017-08-30T01:31:51.009Z,22.57
2017-08-30T01:33:04.862Z,22.56
2017-08-30T01:34:18.385Z,22.56
2017-08-30T01:35:31.887Z,22.55
2017-08-30T01:36:45.735Z,22.55
2017-08-30T01:37:59.230Z,22.55
2017-08-30T01:39:12.825Z,22.54
2017-08-30T01:40:26.321Z,22.55
2017-08-30T01:41:39.825Z,22.55
2017-08-30T01:42:53.720Z,22.54
2017-08-30T01:44:07.218Z,22.55
2017-08-30T01:45:20.956Z,22.52
2017-08-30T01:46:34.981Z,22.51
2017-08-30T01:47:48.471Z,22.52
2017-08-30T01:49:02.334Z,22.51
2017-08-30T01:50:16.365Z,22.51
2017-08-30T01:51:30.278Z,22.49
2017-08-30T01:52:43.839Z,22.49
2017-08-30T01:53:57.369Z,22.47
2017-08-30T01:55:11.167Z,22.45
2017-08-30T01:56:24.691Z,22.44
2017-08-30T01:57:38.434Z,22.44
2017-08-30T01:58:52.260Z,22.44
2017-08-30T02:00:05.753Z,22.44
2017-08-30T02:01:19.576Z,22.45
2017-08-30T02:02:33.081Z,22.44
2017-08-30T02:03:46.705Z,22.43
2017-08-30T02:05:00.673Z,22.39
2017-08-30T02:06:14.169Z,22.34
2017-08-30T02:07:27.975Z,22.3
2017-08-30T02:08:41.474Z,22.27
2017-08-30T02:09:54.960Z,22.24
2017-08-30T02:11:08.455Z,22.22
2017-08-30T02:12:22.462Z,22.2
2017-08-30T02:13:36.306Z,22.2
2017-08-30T02:14:50.419Z,22.18
2017-08-30T02:16:04.630Z,22.19
2017-08-30T02:17:18.186Z,22.21
2017-08-30T02:18:31.693Z,22.22
2017-08-30T02:19:45.489Z,22.24
2017-08-30T02:20:59.005Z,22.23
2017-08-30T02:22:12.522Z,22.25
2017-08-30T02:23:26.029Z,22.25
2017-08-30T02:24:39.537Z,22.24
2017-08-30T02:25:53.355Z,22.21
2017-08-30T02:27:06.900Z,22.19
2017-08-30T02:28:20.426Z,22.16
2017-08-30T02:29:33.932Z,22.12
2017-08-30T02:30:47.423Z,22.08
2017-08-30T02:32:01.274Z,22.04
2017-08-30T02:33:14.793Z,22.02
2017-08-30T02:34:28.305Z,22.02
2017-08-30T02:35:41.826Z,22.02
2017-08-30T02:36:55.345Z,22.01
2017-08-30T02:38:09.167Z,22.02
2017-08-30T02:39:22.756Z,22.03
2017-08-30T02:40:36.267Z,22.02
2017-08-30T02:41:49.765Z,22.03
2017-08-30T02:43:03.326Z,22
2017-08-30T02:44:17.284Z,21.96
2017-08-30T02:45:31.124Z,21.93
2017-08-30T02:46:44.622Z,21.88
2017-08-30T02:47:58.118Z,21.84
2017-08-30T02:49:11.967Z,21.81
2017-08-30T02:50:26.221Z,21.8
2017-08-30T02:51:40.226Z,21.8
2017-08-30T02:52:53.738Z,21.78
2017-08-30T02:54:07.336Z,21.79
2017-08-30T02:55:21.169Z,21.81
2017-08-30T02:56:35.192Z,21.83
2017-08-30T02:57:49.403Z,21.85
2017-08-30T02:59:02.914Z,21.85
2017-08-30T03:00:16.483Z,21.86
2017-08-30T03:01:29.988Z,21.85
2017-08-30T03:02:43.770Z,21.87
2017-08-30T03:03:57.266Z,21.87
2017-08-30T03:05:10.930Z,21.87
2017-08-30T03:06:24.453Z,21.85
2017-08-30T03:07:37.953Z,21.83
2017-08-30T03:08:51.743Z,21.82
2017-08-30T03:10:05.278Z,21.8
2017-08-30T03:11:18.908Z,21.8
2017-08-30T03:12:32.433Z,21.79
2017-08-30T03:13:46.595Z,21.79
2017-08-30T03:15:00.733Z,21.78
2017-08-30T03:16:14.238Z,21.79
2017-08-30T03:17:27.750Z,21.79
2017-08-30T03:18:41.729Z,21.81
2017-08-30T03:19:55.981Z,21.82
2017-08-30T03:21:10.205Z,21.83
2017-08-30T03:22:24.034Z,21.84
2017-08-30T03:23:37.714Z,21.86
2017-08-30T03:24:51.240Z,21.88
2017-08-30T03:26:04.815Z,21.88
2017-08-30T03:27:18.691Z,21.89
2017-08-30T03:28:32.211Z,21.89
2017-08-30T03:29:46.048Z,21.89
2017-08-30T03:30:59.611Z,21.87
2017-08-30T03:32:13.117Z,21.87
2017-08-30T03:33:26.921Z,21.88
2017-08-30T03:34:40.416Z,21.87
2017-08-30T03:35:53.998Z,21.87
2017-08-30T03:37:07.835Z,21.87
2017-08-30T03:38:21.323Z,21.86
2017-08-30T03:39:35.159Z,21.87
2017-08-30T03:40:48.767Z,21.88
2017-08-30T03:42:02.290Z,21.89
2017-08-30T03:43:15.794Z,21.91
2017-08-30T03:44:29.515Z,21.91
2017-08-30T03:45:43.639Z,21.93
2017-08-30T03:46:57.138Z,21.93
2017-08-30T03:48:10.642Z,21.89
2017-08-30T03:49:24.153Z,21.93
2017-08-30T03:50:37.999Z,21.91
2017-08-30T03:51:51.819Z,21.92
2017-08-30T03:53:05.310Z,21.93
2017-08-30T03:54:18.912Z,21.93
2017-08-30T03:55:32.408Z,21.93
2017-08-30T03:56:46.783Z,21.93
2017-08-30T03:58:00.588Z,21.94
2017-08-30T03:59:14.132Z,21.94
2017-08-30T04:00:27.957Z,21.93
2017-08-30T04:01:41.462Z,21.89
2017-08-30T04:02:55.178Z,21.86
2017-08-30T04:04:09.343Z,21.81
2017-08-30T04:05:22.855Z,21.75
2017-08-30T04:06:36.434Z,21.71
2017-08-30T04:07:50.335Z,21.67
2017-08-30T04:09:03.875Z,21.63
2017-08-30T04:10:17.665Z,21.63
2017-08-30T04:11:31.247Z,21.61
2017-08-30T04:12:44.783Z,21.62
2017-08-30T04:13:58.822Z,21.6
2017-08-30T04:15:12.476Z,21.6
2017-08-30T04:16:26.300Z,21.62
2017-08-30T04:17:39.815Z,21.63
2017-08-30T04:18:53.325Z,21.64
2017-08-30T04:20:06.842Z,21.65
2017-08-30T04:21:20.402Z,21.68
2017-08-30T04:22:34.225Z,21.7
2017-08-30T04:23:47.739Z,21.72
2017-08-30T04:25:01.239Z,21.76
2017-08-30T04:26:15.095Z,21.78
2017-08-30T04:27:28.608Z,21.8
2017-08-30T04:28:42.429Z,21.81
2017-08-30T04:29:55.933Z,21.82
2017-08-30T04:31:09.445Z,21.81
2017-08-30T04:32:22.982Z,21.8
2017-08-30T04:33:36.465Z,21.78
2017-08-30T04:34:50.263Z,21.77
2017-08-30T04:36:04.133Z,21.75
2017-08-30T04:37:17.739Z,21.74
2017-08-30T04:38:31.338Z,21.73
2017-08-30T04:39:44.830Z,21.74
2017-08-30T04:40:58.981Z,21.74
2017-08-30T04:42:12.485Z,21.76
2017-08-30T04:43:25.992Z,21.79
2017-08-30T04:44:39.509Z,21.81
2017-08-30T04:45:53.028Z,21.82
2017-08-30T04:47:06.816Z,21.84
2017-08-30T04:48:20.325Z,21.88
2017-08-30T04:49:33.879Z,21.91
2017-08-30T04:50:47.400Z,21.97
2017-08-30T04:52:00.904Z,22.04
2017-08-30T04:53:14.840Z,22.08
2017-08-30T04:54:28.405Z,22.17
2017-08-30T04:55:41.953Z,22.24
2017-08-30T04:56:55.469Z,22.32
2017-08-30T04:58:08.966Z,22.4
2017-08-30T04:59:22.874Z,22.47
2017-08-30T05:00:36.562Z,22.54
2017-08-30T05:01:51.133Z,22.62
2017-08-30T05:03:04.638Z,22.71
2017-08-30T05:04:18.326Z,22.78
2017-08-30T05:05:32.360Z,22.85
2017-08-30T05:06:45.868Z,22.92
2017-08-30T05:07:59.711Z,23
2017-08-30T05:09:13.251Z,23.06
2017-08-30T05:10:26.751Z,23.12
2017-08-30T05:11:40.644Z,23.17
2017-08-30T05:12:54.328Z,23.22
2017-08-30T05:14:07.838Z,23.29
2017-08-30T05:15:21.337Z,23.36
2017-08-30T05:16:35.072Z,23.41
2017-08-30T05:17:48.914Z,23.49
2017-08-30T05:19:02.453Z,23.51
2017-08-30T05:20:16.074Z,23.55
2017-08-30T05:21:29.922Z,23.58
2017-08-30T05:22:43.939Z,23.64
2017-08-30T05:23:57.858Z,23.67
2017-08-30T05:25:11.382Z,23.71
2017-08-30T05:26:24.886Z,23.72
2017-08-30T05:27:38.413Z,23.71
2017-08-30T05:28:51.934Z,23.73
2017-08-30T05:30:05.964Z,23.77
2017-08-30T05:31:19.488Z,23.79
2017-08-30T05:32:33.313Z,23.84
2017-08-30T05:33:46.814Z,23.85
2017-08-30T05:35:00.406Z,23.9
2017-08-30T05:36:14.255Z,23.91
2017-08-30T05:37:27.773Z,23.96
2017-08-30T05:38:41.597Z,23.99
2017-08-30T05:39:55.113Z,24.02
2017-08-30T05:41:08.610Z,24.09
2017-08-30T05:42:22.468Z,24.11
2017-08-30T05:43:35.982Z,24.16
2017-08-30T05:44:49.490Z,24.18
2017-08-30T05:46:03.446Z,24.2
2017-08-30T05:47:16.991Z,24.22
2017-08-30T05:48:30.829Z,24.23
2017-08-30T05:49:44.691Z,24.24
2017-08-30T05:50:58.697Z,24.23
2017-08-30T05:52:25.320Z,24.24
2017-08-30T05:53:39.210Z,24.26
2017-08-30T05:54:52.768Z,24.25
2017-08-30T05:56:06.268Z,24.26
2017-08-30T05:57:19.778Z,24.23
2017-08-30T05:58:33.303Z,24.21
2017-08-30T05:59:47.131Z,24.19
2017-08-30T06:01:00.958Z,24.18
2017-08-30T06:02:14.486Z,24.15
2017-08-30T06:03:28.485Z,24.16
2017-08-30T06:04:42.377Z,24.17
2017-08-30T06:05:56.274Z,24.18
2017-08-30T06:07:09.782Z,24.18
2017-08-30T06:08:23.327Z,24.18
2017-08-30T06:09:36.831Z,24.2
2017-08-30T06:10:50.568Z,24.22
2017-08-30T06:12:04.384Z,24.24
2017-08-30T06:13:17.888Z,24.26
2017-08-30T06:14:31.734Z,24.29
2017-08-30T06:15:45.282Z,24.32
2017-08-30T06:16:59.148Z,24.34
2017-08-30T06:18:13.326Z,24.36
2017-08-30T06:19:26.833Z,24.39
2017-08-30T06:20:40.423Z,24.4
2017-08-30T06:21:53.909Z,24.42
2017-08-30T06:23:07.671Z,24.44
2017-08-30T06:24:21.483Z,24.46
2017-08-30T06:25:35.000Z,24.49
2017-08-30T06:26:48.497Z,24.52
2017-08-30T06:28:02.149Z,24.51
2017-08-30T06:29:15.659Z,24.53
2017-08-30T06:30:29.477Z,24.52
2017-08-30T06:31:42.988Z,24.56
2017-08-30T06:32:56.539Z,24.54
2017-08-30T06:34:10.074Z,24.54
2017-08-30T06:35:23.582Z,24.54
2017-08-30T06:36:37.406Z,24.58
2017-08-30T06:37:50.918Z,24.61
2017-08-30T06:39:04.473Z,24.65
2017-08-30T06:40:18.023Z,24.69
2017-08-30T06:41:32.040Z,24.74
2017-08-30T06:42:45.865Z,24.79
2017-08-30T06:43:59.391Z,24.83
2017-08-30T06:45:12.919Z,24.87
2017-08-30T06:46:26.512Z,24.88
2017-08-30T06:47:40.022Z,24.93
2017-08-30T06:48:54.155Z,24.96
2017-08-30T06:50:07.693Z,25.02
2017-08-30T06:51:21.722Z,25.09
2017-08-30T06:52:35.241Z,25.17
2017-08-30T06:53:48.771Z,25.25
2017-08-30T06:55:02.568Z,25.29
2017-08-30T06:56:16.080Z,25.32
2017-08-30T06:57:29.921Z,25.32
2017-08-30T06:58:44.065Z,25.34
2017-08-30T06:59:57.709Z,25.38
2017-08-30T07:01:11.622Z,25.41
2017-08-30T07:02:25.137Z,25.45
2017-08-30T07:03:38.637Z,25.51
2017-08-30T07:04:52.344Z,25.58
2017-08-30T07:06:05.861Z,25.67
2017-08-30T07:07:19.748Z,25.75
2017-08-30T07:08:33.595Z,25.84
2017-08-30T07:09:47.089Z,25.92
2017-08-30T07:11:00.611Z,26
2017-08-30T07:12:14.441Z,26.08
2017-08-30T07:13:28.281Z,26.17
2017-08-30T07:14:41.784Z,26.21
2017-08-30T07:15:55.295Z,26.27
2017-08-30T07:17:08.872Z,26.35
2017-08-30T07:18:22.392Z,26.4
2017-08-30T07:19:36.261Z,26.44
2017-08-30T07:20:49.782Z,26.49
2017-08-30T07:22:03.420Z,26.53
2017-08-30T07:23:16.945Z,26.56
2017-08-30T07:24:30.462Z,26.59
2017-08-30T07:25:44.294Z,26.62
2017-08-30T07:26:57.809Z,26.64
2017-08-30T07:28:11.310Z,26.64
2017-08-30T07:29:25.186Z,26.65
2017-08-30T07:30:38.692Z,26.66
2017-08-30T07:31:52.493Z,26.64
2017-08-30T07:33:06.370Z,26.65
2017-08-30T07:34:19.906Z,26.65
2017-08-30T07:35:33.459Z,26.68
2017-08-30T07:36:47.064Z,26.72
2017-08-30T07:38:01.570Z,26.77
2017-08-30T07:39:15.412Z,26.86
2017-08-30T07:40:29.273Z,26.93
2017-08-30T07:41:42.823Z,27
2017-08-30T07:42:56.372Z,27.05
2017-08-30T07:44:10.254Z,27.08
2017-08-30T07:45:23.802Z,27.09
2017-08-30T07:46:37.317Z,27.11
2017-08-30T07:47:51.171Z,27.12
2017-08-30T07:49:04.704Z,27.14
2017-08-30T07:50:18.510Z,27.2
2017-08-30T07:51:32.048Z,27.22
2017-08-30T07:52:45.586Z,27.25
2017-08-30T07:53:59.119Z,27.31
2017-08-30T07:55:12.636Z,27.34
2017-08-30T07:56:26.519Z,27.37
2017-08-30T07:57:40.048Z,27.39
2017-08-30T07:58:54.099Z,27.39
2017-08-30T08:00:07.994Z,27.39
2017-08-30T08:01:21.529Z,27.41
2017-08-30T08:02:35.689Z,27.42
2017-08-30T08:03:49.252Z,27.44
2017-08-30T08:05:02.821Z,27.44
2017-08-30T08:06:16.470Z,27.44
2017-08-30T08:07:29.993Z,27.45
2017-08-30T08:08:44.165Z,27.48
2017-08-30T08:09:57.707Z,27.49
2017-08-30T08:11:11.210Z,27.52
2017-08-30T08:12:24.717Z,27.52
2017-08-30T08:13:38.323Z,27.53
2017-08-30T08:14:52.126Z,27.54
2017-08-30T08:16:05.628Z,27.54
2017-08-30T08:17:19.156Z,27.54
2017-08-30T08:18:32.686Z,27.54
2017-08-30T08:19:46.387Z,27.56
2017-08-30T08:21:00.331Z,27.59
2017-08-30T08:22:14.197Z,27.6
2017-08-30T08:23:27.942Z,27.62
2017-08-30T08:24:41.805Z,27.65
2017-08-30T08:25:55.355Z,27.67
2017-08-30T08:27:09.522Z,27.71
2017-08-30T08:28:23.448Z,27.75
2017-08-30T08:29:36.966Z,27.79
2017-08-30T08:30:50.539Z,27.84
2017-08-30T08:32:04.107Z,27.9
2017-08-30T08:33:17.985Z,27.94
2017-08-30T08:34:31.532Z,28
2017-08-30T08:35:45.061Z,28.04
2017-08-30T08:36:58.753Z,28.1
2017-08-30T08:38:12.282Z,28.14
2017-08-30T08:39:26.619Z,28.18
2017-08-30T08:40:40.196Z,28.21
2017-08-30T08:41:54.047Z,28.22
2017-08-30T08:43:07.573Z,28.26
2017-08-30T08:44:21.313Z,28.28
2017-08-30T08:45:35.125Z,28.31
2017-08-30T08:46:49.068Z,28.35
2017-08-30T08:48:02.603Z,28.39
2017-08-30T08:49:16.130Z,28.42
2017-08-30T08:50:29.664Z,28.47
2017-08-30T08:51:43.491Z,28.5
2017-08-30T08:52:57.039Z,28.54
2017-08-30T08:54:10.536Z,28.55
2017-08-30T08:55:24.615Z,28.61
2017-08-30T08:56:38.299Z,28.63
2017-08-30T08:57:53.338Z,28.68
2017-08-30T08:59:07.055Z,28.72
2017-08-30T09:00:20.571Z,28.74
2017-08-30T09:01:34.143Z,28.76
2017-08-30T09:02:47.666Z,28.8
2017-08-30T09:04:01.511Z,28.82
2017-08-30T09:05:15.108Z,28.86
2017-08-30T09:06:28.638Z,28.88
2017-08-30T09:07:42.214Z,28.93
2017-08-30T09:08:55.712Z,28.94
2017-08-30T09:10:09.650Z,28.95
2017-08-30T09:11:23.387Z,28.96
2017-08-30T09:12:37.680Z,28.96
2017-08-30T09:13:53.431Z,28.97
2017-08-30T09:15:06.954Z,28.98
2017-08-30T09:16:21.263Z,29.02
2017-08-30T09:17:35.543Z,29.02
2017-08-30T09:18:49.132Z,29.05
2017-08-30T09:20:02.697Z,29.06
2017-08-30T09:21:16.268Z,29.04
2017-08-30T09:22:31.283Z,29.03
2017-08-30T09:23:44.855Z,29.01
2017-08-30T09:24:58.419Z,28.99
2017-08-30T09:26:11.989Z,29.01
2017-08-30T09:27:25.561Z,29.03
2017-08-30T09:28:39.398Z,29.06
2017-08-30T09:29:52.971Z,29.09
2017-08-30T09:31:07.249Z,29.1
2017-08-30T09:32:20.848Z,29.11
2017-08-30T09:33:34.453Z,29.13
2017-08-30T09:34:48.329Z,29.15
2017-08-30T09:36:01.936Z,29.18
2017-08-30T09:37:15.586Z,29.23
2017-08-30T09:38:29.143Z,29.28
2017-08-30T09:39:42.687Z,29.33
2017-08-30T09:40:56.554Z,29.36
2017-08-30T09:42:10.116Z,29.36
2017-08-30T09:43:23.681Z,29.37
2017-08-30T09:44:37.221Z,29.4
2017-08-30T09:45:50.759Z,29.44
2017-08-30T09:47:04.908Z,29.49
2017-08-30T09:48:18.427Z,29.56
2017-08-30T09:49:31.976Z,29.62
2017-08-30T09:50:45.652Z,29.7
2017-08-30T09:51:59.237Z,29.77
2017-08-30T09:53:13.657Z,29.86
2017-08-30T09:54:27.549Z,29.96
2017-08-30T09:55:41.544Z,30.07
2017-08-30T09:56:55.395Z,30.16
2017-08-30T09:58:08.920Z,30.27
2017-08-30T09:59:22.840Z,30.38
2017-08-30T10:00:36.352Z,30.52
2017-08-30T10:01:50.000Z,30.63
2017-08-30T10:03:03.551Z,30.73
2017-08-30T10:04:17.390Z,30.82
2017-08-30T10:05:31.270Z,30.91
2017-08-30T10:06:44.790Z,30.97
2017-08-30T10:07:58.302Z,31.03
2017-08-30T10:09:11.823Z,31.1
2017-08-30T10:10:25.538Z,31.13
2017-08-30T10:11:39.359Z,31.15
2017-08-30T10:12:53.439Z,31.13
2017-08-30T10:14:06.945Z,31.1
2017-08-30T10:15:20.504Z,31.07
2017-08-30T10:16:34.232Z,31.04
2017-08-30T10:17:48.065Z,30.99
2017-08-30T10:19:01.722Z,30.95
2017-08-30T10:20:15.266Z,30.92
2017-08-30T10:21:28.829Z,30.9
2017-08-30T10:22:42.972Z,30.92
2017-08-30T10:23:56.810Z,30.97
2017-08-30T10:25:11.274Z,31.03
2017-08-30T10:26:24.785Z,31.1
2017-08-30T10:27:38.312Z,31.19
2017-08-30T10:28:51.869Z,31.25
2017-08-30T10:30:05.720Z,31.29
2017-08-30T10:31:19.285Z,31.33
2017-08-30T10:32:33.459Z,31.36
2017-08-30T10:33:47.348Z,31.4
2017-08-30T10:35:00.836Z,31.41
2017-08-30T10:36:14.634Z,31.43
2017-08-30T10:37:28.222Z,31.46
2017-08-30T10:38:41.733Z,31.47
2017-08-30T10:39:55.248Z,31.47
2017-08-30T10:41:09.452Z,31.47
2017-08-30T10:42:23.316Z,31.45
2017-08-30T10:43:36.822Z,31.45
2017-08-30T10:44:50.358Z,31.48
2017-08-30T10:46:03.941Z,31.52
2017-08-30T10:47:17.783Z,31.55
2017-08-30T10:48:32.140Z,31.56
2017-08-30T10:49:45.665Z,31.54
2017-08-30T10:50:59.186Z,31.56
2017-08-30T10:52:12.752Z,31.57
2017-08-30T10:53:26.286Z,31.58
2017-08-30T10:54:40.098Z,31.58
2017-08-30T10:55:53.964Z,31.61
2017-08-30T10:57:07.846Z,31.64
2017-08-30T10:58:21.574Z,31.65
2017-08-30T10:59:35.266Z,31.65
2017-08-30T11:00:49.883Z,31.65
2017-08-30T11:02:03.444Z,31.63
2017-08-30T11:03:16.976Z,31.58
2017-08-30T11:04:30.609Z,31.54
2017-08-30T11:05:44.150Z,31.5
2017-08-30T11:06:57.989Z,31.45
2017-08-30T11:08:11.528Z,31.41
2017-08-30T11:09:25.277Z,31.4
2017-08-30T11:10:38.830Z,31.38
2017-08-30T11:11:52.486Z,31.35
2017-08-30T11:13:06.345Z,31.34
2017-08-30T11:14:19.882Z,31.37
2017-08-30T11:15:33.410Z,31.4
2017-08-30T11:16:46.991Z,31.44
2017-08-30T11:18:00.555Z,31.49
2017-08-30T11:19:14.532Z,31.53
2017-08-30T11:20:28.076Z,31.58
2017-08-30T11:21:41.678Z,31.64
2017-08-30T11:22:55.262Z,31.67
2017-08-30T11:24:08.821Z,31.72
2017-08-30T11:25:22.699Z,31.79
2017-08-30T11:26:36.396Z,31.85
2017-08-30T11:27:49.933Z,31.9
2017-08-30T11:29:03.485Z,31.94
2017-08-30T11:30:17.033Z,31.98
2017-08-30T11:31:30.891Z,31.99
2017-08-30T11:32:44.427Z,31.99
2017-08-30T11:33:57.963Z,31.99
2017-08-30T11:35:11.528Z,31.96
2017-08-30T11:36:25.051Z,31.95
2017-08-30T11:37:39.022Z,31.94
2017-08-30T11:38:52.749Z,31.96
2017-08-30T11:40:06.288Z,31.96
2017-08-30T11:41:20.420Z,31.96
2017-08-30T11:42:34.016Z,31.93
2017-08-30T11:43:47.877Z,31.92
2017-08-30T11:45:01.443Z,31.91
2017-08-30T11:46:14.969Z,31.93
2017-08-30T11:47:28.647Z,31.95
2017-08-30T11:48:42.191Z,31.98
2017-08-30T11:49:56.065Z,32.01
2017-08-30T11:51:09.614Z,32.05
2017-08-30T11:52:23.190Z,32.07
2017-08-30T11:53:37.232Z,32.11
2017-08-30T11:54:50.894Z,32.12
2017-08-30T11:56:04.761Z,32.13
2017-08-30T11:57:18.627Z,32.12
2017-08-30T11:58:32.210Z,32.11
2017-08-30T11:59:46.018Z,32.09
2017-08-30T12:00:59.942Z,32.08
2017-08-30T12:02:13.809Z,32.05
2017-08-30T12:03:27.787Z,32.03
2017-08-30T12:04:41.815Z,32.03
2017-08-30T12:05:55.363Z,32.06
2017-08-30T12:07:09.105Z,32.1
2017-08-30T12:08:22.942Z,32.14
2017-08-30T12:09:36.506Z,32.19
2017-08-30T12:10:50.393Z,32.25
2017-08-30T12:12:03.952Z,32.3
2017-08-30T12:13:17.863Z,32.37
2017-08-30T12:14:32.075Z,32.44
2017-08-30T12:15:45.688Z,32.51
2017-08-30T12:16:59.349Z,32.56
2017-08-30T12:18:12.923Z,32.65
2017-08-30T12:19:26.456Z,32.72
2017-08-30T12:20:40.445Z,32.76
2017-08-30T12:21:54.317Z,32.8
2017-08-30T12:23:07.884Z,32.81
2017-08-30T12:24:21.442Z,32.82
2017-08-30T12:25:35.416Z,32.82
2017-08-30T12:26:49.304Z,32.82
2017-08-30T12:28:02.850Z,32.81
2017-08-30T12:29:16.747Z,32.82
2017-08-30T12:30:30.322Z,32.85
2017-08-30T12:31:44.208Z,32.85
2017-08-30T12:32:58.367Z,32.82
2017-08-30T12:34:11.931Z,32.79
2017-08-30T12:35:25.466Z,32.76
2017-08-30T12:36:39.057Z,32.77
2017-08-30T12:37:52.603Z,32.8
2017-08-30T12:39:06.439Z,32.86
2017-08-30T12:40:20.110Z,32.96
2017-08-30T12:41:33.679Z,33.07
2017-08-30T12:42:47.196Z,33.18
2017-08-30T12:44:01.084Z,33.29
2017-08-30T12:45:14.977Z,33.39
2017-08-30T12:46:28.850Z,33.46
2017-08-30T12:47:43.073Z,33.51
2017-08-30T12:48:56.963Z,33.53
2017-08-30T12:50:10.554Z,33.51
2017-08-30T12:51:25.057Z,33.5
2017-08-30T12:52:38.619Z,33.44
2017-08-30T12:53:52.526Z,33.38
2017-08-30T12:55:06.085Z,33.34
2017-08-30T12:56:19.996Z,33.32
2017-08-30T12:57:33.939Z,33.29
2017-08-30T12:58:47.520Z,33.27
2017-08-30T13:00:01.078Z,33.25
2017-08-30T13:01:14.607Z,33.22
2017-08-30T13:02:28.233Z,33.21
2017-08-30T13:03:42.083Z,33.21
2017-08-30T13:04:55.986Z,33.23
2017-08-30T13:06:09.664Z,33.27
2017-08-30T13:07:23.170Z,33.33
2017-08-30T13:08:36.696Z,33.38
2017-08-30T13:09:50.534Z,33.44
2017-08-30T13:11:04.041Z,33.47
2017-08-30T13:12:17.612Z,33.49
2017-08-30T13:13:31.599Z,33.5
2017-08-30T13:14:45.179Z,33.46
2017-08-30T13:15:59.016Z,33.44
2017-08-30T13:17:12.580Z,33.39
2017-08-30T13:18:26.095Z,33.33
2017-08-30T13:19:40.207Z,33.26
2017-08-30T13:20:54.077Z,33.19
2017-08-30T13:22:07.950Z,33.14
2017-08-30T13:23:21.540Z,33.1
2017-08-30T13:24:35.069Z,33.06
2017-08-30T13:25:48.957Z,33.03
2017-08-30T13:27:02.902Z,33
2017-08-30T13:28:16.821Z,32.97
2017-08-30T13:29:30.710Z,32.94
2017-08-30T13:30:44.350Z,32.94
2017-08-30T13:31:58.240Z,32.97
2017-08-30T13:33:12.224Z,33
2017-08-30T13:34:26.424Z,33.05
2017-08-30T13:35:40.043Z,33.13
2017-08-30T13:36:53.612Z,33.19
2017-08-30T13:38:07.152Z,33.26
2017-08-30T13:39:20.743Z,33.34
2017-08-30T13:40:34.766Z,33.39
2017-08-30T13:41:48.324Z,33.43
2017-08-30T13:43:02.229Z,33.44
2017-08-30T13:44:15.752Z,33.45
2017-08-30T13:45:29.292Z,33.39
2017-08-30T13:46:43.433Z,33.35
2017-08-30T13:47:56.976Z,33.31
2017-08-30T13:49:10.542Z,33.29
2017-08-30T13:50:24.071Z,33.29
2017-08-30T13:51:37.588Z,33.29
2017-08-30T13:52:51.418Z,33.29
2017-08-30T13:54:05.031Z,33.28
2017-08-30T13:55:19.081Z,33.25
2017-08-30T13:56:32.852Z,33.21
2017-08-30T13:57:46.380Z,33.18
2017-08-30T13:59:00.216Z,33.14
2017-08-30T14:00:14.184Z,33.11
2017-08-30T14:01:27.723Z,33.06
2017-08-30T14:02:41.266Z,33.03
2017-08-30T14:03:54.932Z,33.01
2017-08-30T14:05:09.191Z,33.02
2017-08-30T14:06:22.781Z,33.05
2017-08-30T14:07:36.325Z,33.07
2017-08-30T14:08:50.330Z,33.08
2017-08-30T14:10:35.960Z,33.12
2017-08-30T14:11:49.513Z,33.13
2017-08-30T14:13:03.264Z,33.16
2017-08-30T14:14:16.852Z,33.18
2017-08-30T14:15:30.514Z,33.19
2017-08-30T14:16:44.718Z,33.22
2017-08-30T14:17:58.278Z,33.23
2017-08-30T14:19:11.802Z,33.22
2017-08-30T14:20:38.389Z,33.24
2017-08-30T14:21:52.238Z,33.26
2017-08-30T14:23:05.775Z,33.3
2017-08-30T14:24:19.352Z,33.34
2017-08-30T14:25:32.930Z,33.36
2017-08-30T14:26:46.482Z,33.4
2017-08-30T14:28:00.594Z,33.44
2017-08-30T14:29:14.152Z,33.47
2017-08-30T14:30:27.959Z,33.5
2017-08-30T14:31:41.851Z,33.52
2017-08-30T14:32:55.397Z,33.53
2017-08-30T14:34:09.301Z,33.49
2017-08-30T14:35:23.206Z,33.47
2017-08-30T14:36:36.787Z,33.41
2017-08-30T14:37:50.342Z,33.38
2017-08-30T14:39:03.878Z,33.33
2017-08-30T14:40:17.802Z,33.24
2017-08-30T14:41:31.353Z,33.17
2017-08-30T14:42:45.028Z,33.1
2017-08-30T14:43:58.576Z,33.04
2017-08-30T14:45:12.201Z,33.02
2017-08-30T14:46:26.048Z,32.99
2017-08-30T14:47:39.588Z,32.98
2017-08-30T14:48:53.523Z,32.94
2017-08-30T14:50:07.101Z,32.89
2017-08-30T14:51:20.864Z,32.85
2017-08-30T14:52:34.678Z,32.82
2017-08-30T14:53:48.219Z,32.79
2017-08-30T14:55:02.088Z,32.79
2017-08-30T14:56:15.624Z,32.77
2017-08-30T14:57:29.176Z,32.76
2017-08-30T14:58:43.001Z,32.77
2017-08-30T14:59:56.580Z,32.74
2017-08-30T15:01:10.459Z,32.73
2017-08-30T15:02:24.059Z,32.69
2017-08-30T15:03:37.735Z,32.68
2017-08-30T15:04:51.585Z,32.65
2017-08-30T15:06:05.172Z,32.59
2017-08-30T15:07:18.729Z,32.52
2017-08-30T15:08:32.251Z,32.45
2017-08-30T15:09:45.767Z,32.42
2017-08-30T15:10:59.982Z,32.37
2017-08-30T15:12:14.114Z,32.33
2017-08-30T15:13:27.626Z,32.29
2017-08-30T15:14:41.151Z,32.26
2017-08-30T15:15:54.669Z,32.2
2017-08-30T15:17:08.844Z,32.15
2017-08-30T15:18:22.406Z,32.13
2017-08-30T15:19:35.937Z,32.12
2017-08-30T15:20:49.476Z,32.1
2017-08-30T15:22:03.078Z,32.08
2017-08-30T15:23:17.234Z,32.05
2017-08-30T15:24:30.935Z,32.04
2017-08-30T15:25:45.457Z,32.03
2017-08-30T15:26:58.998Z,32.02
2017-08-30T15:28:12.844Z,32.02
2017-08-30T15:29:27.055Z,32.04
2017-08-30T15:30:40.559Z,32.04
2017-08-30T15:31:54.073Z,32.02
2017-08-30T15:33:07.647Z,32
2017-08-30T15:34:21.260Z,31.94
2017-08-30T15:35:35.074Z,31.9
2017-08-30T15:36:48.620Z,31.87
2017-08-30T15:38:02.187Z,31.82
2017-08-30T15:39:15.709Z,31.76
2017-08-30T15:40:29.260Z,31.75
2017-08-30T15:41:43.165Z,31.69
2017-08-30T15:42:56.808Z,31.65
2017-08-30T15:44:11.745Z,31.58
2017-08-30T15:45:25.260Z,31.52
2017-08-30T15:46:38.827Z,31.49
2017-08-30T15:47:52.664Z,31.43
2017-08-30T15:49:06.263Z,31.37
2017-08-30T15:50:20.011Z,31.3
2017-08-30T15:51:33.539Z,31.25
2017-08-30T15:52:47.058Z,31.21
2017-08-30T15:54:00.936Z,31.18